createdAt,value
2019-01-08T00:00:03.778Z,34.93
2019-01-08T00:03:07.218Z,34.07
2019-01-08T00:06:07.525Z,36.90
2019-01-08T00:09:07.597Z,35.83
2019-01-08T00:12:06.953Z,34.83
2019-01-08T00:15:06.915Z,35.80
2019-01-08T00:18:07.178Z,36.43
2019-01-08T00:20:56.067Z,36.40
2019-01-08T00:23:55.459Z,38.13
2019-01-08T00:26:35.246Z,34.07
2019-01-08T00:29:34.864Z,36.67
2019-01-08T00:32:13.802Z,35.37
2019-01-08T00:35:14.132Z,35.70
2019-01-08T00:37:41.803Z,36.23
2019-01-08T00:40:21.487Z,35.77
2019-01-08T00:43:20.929Z,36.73
2019-01-08T00:45:48.787Z,36.23
2019-01-08T00:48:48.478Z,34.07
2019-01-08T00:51:16.175Z,35.37
2019-01-08T00:53:56.206Z,34.40
2019-01-08T00:56:55.935Z,35.13
2019-01-08T00:59:35.692Z,34.53
2019-01-08T01:02:35.439Z,33.77
2019-01-08T01:05:22.536Z,34.77
2019-01-08T01:07:50.160Z,35.90
2019-01-08T01:10:49.613Z,35.60
2019-01-08T01:13:17.269Z,34.83
2019-01-08T01:16:17.095Z,35.33
2019-01-08T01:19:17.141Z,33.90
2019-01-08T01:25:17.504Z,36.03
2019-01-08T01:28:17.755Z,35.13
2019-01-08T01:30:45.432Z,35.20
2019-01-08T01:36:21.886Z,35.70
2019-01-08T01:41:51.129Z,35.93
2019-01-08T01:44:50.502Z,35.97
2019-01-08T01:47:29.626Z,35.20
2019-01-08T01:49:57.620Z,37.20
2019-01-08T01:52:46.553Z,36.13
2019-01-08T01:55:46.045Z,36.43
2019-01-08T01:58:46.339Z,35.30
2019-01-08T02:01:46.410Z,35.90
2019-01-08T02:04:25.464Z,35.00
2019-01-08T02:07:25.640Z,35.00
2019-01-08T02:10:05.526Z,36.37
2019-01-08T02:13:05.099Z,36.43
2019-01-08T02:18:46.614Z,33.93
2019-01-08T02:21:46.158Z,35.37
2019-01-08T02:24:46.437Z,32.17
2019-01-08T02:27:46.682Z,33.87
2019-01-08T02:37:17.755Z,33.27
2019-01-08T02:40:18.111Z,34.37
2019-01-08T02:43:18.477Z,34.37
2019-01-08T02:46:18.924Z,35.83
2019-01-08T02:49:19.297Z,36.47
2019-01-08T02:52:19.595Z,35.33
2019-01-08T02:54:59.608Z,36.43
2019-01-08T02:57:48.718Z,35.27
2019-01-08T03:03:38.430Z,36.43
2019-01-08T03:09:39.901Z,36.00
2019-01-08T03:12:41.331Z,36.50
2019-01-08T03:18:56.152Z,36.33
2019-01-08T03:21:56.417Z,36.73
2019-01-08T03:24:55.873Z,38.63
2019-01-08T03:27:56.236Z,37.07
2019-01-08T03:30:56.355Z,38.37
2019-01-08T03:33:56.236Z,37.87
2019-01-08T03:36:57.026Z,40.47
2019-01-08T03:39:57.265Z,40.07
2019-01-08T03:42:44.542Z,40.03
2019-01-08T03:45:44.507Z,39.83
2019-01-08T03:48:45.972Z,40.43
2019-01-08T03:51:46.103Z,39.30
2019-01-08T03:54:46.246Z,40.30
2019-01-08T03:57:45.686Z,41.57
2019-01-08T04:00:45.917Z,40.53
2019-01-08T04:03:45.959Z,39.77
2019-01-08T04:06:46.415Z,39.50
2019-01-08T04:09:27.183Z,39.97
2019-01-08T04:12:27.226Z,41.40
2019-01-08T04:15:14.506Z,40.77
2019-01-08T04:24:19.791Z,43.03
2019-01-08T04:30:21.305Z,40.10
2019-01-08T04:36:22.938Z,38.03
2019-01-08T04:48:27.718Z,38.73
2019-01-08T04:51:27.947Z,36.90
2019-01-08T04:56:58.247Z,35.47
2019-01-08T04:59:59.035Z,35.90
2019-01-08T05:05:30.414Z,34.03
2019-01-08T05:11:32.972Z,36.40
2019-01-08T05:14:33.271Z,35.27
2019-01-08T05:17:33.551Z,36.03
2019-01-08T05:20:33.536Z,36.30
2019-01-08T05:23:01.215Z,36.40
2019-01-08T05:25:40.667Z,36.13
2019-01-08T05:28:22.288Z,34.90
2019-01-08T05:31:03.919Z,35.67
2019-01-08T05:33:44.146Z,36.43
2019-01-08T05:39:44.654Z,38.67
2019-01-08T05:42:44.138Z,36.37
2019-01-08T05:45:44.274Z,37.80
2019-01-08T05:48:33.383Z,36.97
2019-01-08T05:51:32.787Z,36.07
2019-01-08T05:54:32.776Z,38.33
2019-01-08T05:57:00.667Z,37.57
2019-01-08T06:00:00.924Z,38.77
2019-01-08T06:02:40.723Z,38.03
2019-01-08T06:05:08.699Z,41.43
2019-01-08T06:08:08.481Z,41.10
2019-01-08T06:10:36.145Z,39.07
2019-01-08T06:13:35.661Z,38.47
2019-01-08T06:16:03.270Z,38.07
2019-01-08T06:18:53.586Z,39.83
2019-01-08T06:21:53.889Z,39.77
2019-01-08T06:24:33.497Z,37.40
2019-01-08T06:27:33.113Z,37.87
2019-01-08T06:30:33.338Z,38.50
2019-01-08T06:33:32.795Z,38.07
2019-01-08T06:36:33.063Z,37.07
2019-01-08T06:42:37.526Z,38.07
2019-01-08T06:45:37.742Z,38.50
2019-01-08T06:48:05.551Z,39.20
2019-01-08T06:51:05.904Z,38.93
2019-01-08T06:54:05.911Z,39.00
2019-01-08T06:57:06.124Z,42.47
2019-01-08T07:00:06.380Z,41.10
2019-01-08T07:03:06.564Z,41.03
2019-01-08T07:05:45.579Z,41.27
2019-01-08T07:08:44.927Z,38.80
2019-01-08T07:11:44.877Z,40.03
2019-01-08T07:17:22.095Z,39.63
2019-01-08T07:19:50.153Z,37.97
2019-01-08T07:22:49.759Z,38.40
2019-01-08T07:25:17.443Z,36.30
2019-01-08T07:28:06.352Z,38.73
2019-01-08T07:30:41.268Z,37.20
2019-01-08T07:36:18.253Z,36.43
2019-01-08T07:39:18.348Z,34.83
2019-01-08T07:42:05.422Z,34.50
2019-01-08T07:45:05.269Z,35.37
2019-01-08T07:47:33.031Z,33.43
2019-01-08T07:52:41.248Z,33.13
2019-01-08T07:55:41.191Z,32.73
2019-01-08T07:58:41.393Z,33.83
2019-01-08T08:01:09.214Z,35.63
2019-01-08T08:04:10.429Z,34.70
2019-01-08T08:06:38.129Z,32.37
2019-01-08T08:09:25.310Z,33.77
2019-01-08T08:15:19.029Z,34.63
2019-01-08T08:18:19.191Z,33.27
2019-01-08T08:21:19.276Z,34.93
2019-01-08T08:27:11.451Z,32.13
2019-01-08T08:30:10.929Z,34.90
2019-01-08T08:33:11.370Z,38.43
2019-01-08T08:36:00.387Z,41.40
2019-01-08T08:39:00.530Z,38.73
2019-01-08T08:41:28.497Z,40.80
2019-01-08T08:44:17.472Z,38.67
2019-01-08T08:47:17.654Z,41.37
2019-01-08T08:49:45.287Z,37.73
2019-01-08T08:52:32.788Z,37.30
2019-01-08T08:55:02.292Z,37.67
2019-01-08T08:58:02.071Z,36.93
2019-01-08T09:00:43.630Z,38.33
2019-01-08T09:03:43.305Z,40.17
2019-01-08T09:09:32.649Z,38.37
2019-01-08T09:12:21.627Z,39.53
2019-01-08T09:15:24.469Z,40.67
2019-01-08T09:18:11.857Z,40.67
2019-01-08T09:21:12.042Z,38.23
2019-01-08T09:24:12.480Z,38.90
2019-01-08T09:27:12.577Z,38.33
2019-01-08T09:32:41.766Z,38.47
2019-01-08T09:35:23.601Z,37.57
2019-01-08T09:38:22.986Z,39.00
2019-01-08T09:40:50.788Z,38.93
2019-01-08T09:43:52.103Z,40.13
2019-01-08T09:46:39.199Z,38.50
2019-01-08T09:49:28.167Z,36.23
2019-01-08T09:52:27.552Z,38.30
2019-01-08T09:58:32.651Z,37.80
2019-01-08T10:01:00.374Z,38.97
2019-01-08T10:04:00.441Z,37.63
2019-01-08T10:06:28.332Z,39.80
2019-01-08T10:09:27.694Z,38.13
2019-01-08T10:14:59.220Z,38.23
2019-01-08T10:17:58.501Z,40.03
2019-01-08T10:20:58.670Z,39.03
2019-01-08T10:23:58.738Z,40.07
2019-01-08T10:26:58.940Z,38.40
2019-01-08T10:33:00.359Z,38.30
2019-01-08T10:35:39.377Z,37.87
2019-01-08T10:41:19.760Z,40.60
2019-01-08T10:44:19.527Z,40.17
2019-01-08T10:47:18.840Z,41.80
2019-01-08T10:49:58.015Z,38.17
2019-01-08T10:59:07.690Z,39.07
2019-01-08T11:05:06.495Z,39.23
2019-01-08T11:08:06.724Z,37.93
2019-01-08T11:11:07.014Z,40.30
2019-01-08T11:14:06.466Z,39.47
2019-01-08T11:16:46.101Z,39.90
2019-01-08T11:19:48.661Z,38.47
2019-01-08T11:22:47.999Z,40.00
2019-01-08T11:25:37.010Z,38.03
2019-01-08T11:28:50.660Z,40.77
2019-01-08T11:31:50.899Z,38.93
2019-01-08T11:34:29.965Z,39.90
2019-01-08T11:39:59.376Z,39.23
2019-01-08T11:43:01.251Z,39.80
2019-01-08T11:46:01.451Z,39.53
2019-01-08T11:49:01.761Z,39.63
2019-01-08T11:51:43.274Z,40.73
2019-01-08T11:54:43.078Z,39.47
2019-01-08T11:57:42.499Z,39.83
2019-01-08T12:00:30.276Z,39.40
2019-01-08T12:03:30.622Z,39.53
2019-01-08T12:08:49.723Z,36.63
2019-01-08T12:11:49.861Z,40.77
2019-01-08T12:14:17.719Z,39.57
2019-01-08T12:16:56.922Z,41.47
2019-01-08T12:19:57.323Z,40.63
2019-01-08T12:22:57.379Z,39.83
2019-01-08T12:25:57.515Z,38.53
2019-01-08T12:28:25.462Z,39.03
2019-01-08T12:34:27.076Z,40.70
2019-01-08T12:40:10.855Z,41.23
2019-01-08T12:43:11.108Z,39.93
2019-01-08T12:49:11.022Z,36.27
2019-01-08T12:54:51.610Z,36.20
2019-01-08T12:57:40.644Z,35.93
2019-01-08T13:00:09.167Z,35.97
2019-01-08T13:03:09.223Z,36.37
2019-01-08T13:05:49.014Z,36.83
2019-01-08T13:08:48.681Z,35.57
2019-01-08T13:11:48.021Z,34.67
2019-01-08T13:14:48.200Z,36.00
2019-01-08T13:17:48.468Z,35.60
2019-01-08T13:20:16.331Z,35.10
2019-01-08T13:23:16.757Z,34.30
2019-01-08T13:28:47.224Z,36.53
2019-01-08T13:31:15.024Z,33.83
2019-01-08T13:36:43.815Z,35.43
2019-01-08T13:39:32.953Z,34.70
2019-01-08T13:42:12.143Z,34.70
2019-01-08T13:44:39.894Z,33.97
2019-01-08T13:50:19.470Z,36.80
2019-01-08T13:53:19.657Z,34.73
2019-01-08T13:55:47.495Z,35.97
2019-01-08T13:58:26.688Z,36.10
2019-01-08T14:00:54.423Z,34.97
2019-01-08T14:03:36.463Z,35.10
2019-01-08T14:06:15.678Z,37.27
2019-01-08T14:08:55.246Z,33.90
2019-01-08T14:11:44.353Z,34.73
2019-01-08T14:14:33.253Z,34.50
2019-01-08T14:20:02.415Z,53.27
2019-01-08T14:25:13.648Z,47.43
2019-01-08T14:28:13.769Z,41.47
2019-01-08T14:31:13.775Z,37.53
2019-01-08T14:33:41.522Z,37.03
2019-01-08T14:36:09.184Z,37.60
2019-01-08T14:38:36.773Z,37.13
2019-01-08T14:41:04.464Z,37.70
2019-01-08T14:43:32.060Z,40.13
2019-01-08T14:45:59.756Z,42.20
2019-01-08T14:48:27.485Z,42.47
2019-01-08T14:51:07.745Z,40.50
2019-01-08T14:53:35.534Z,40.87
2019-01-08T14:56:03.427Z,43.10
2019-01-08T14:58:31.266Z,39.00
2019-01-08T15:01:31.446Z,38.10
2019-01-08T15:04:10.778Z,36.40
2019-01-08T15:06:38.541Z,38.63
2019-01-08T15:09:38.848Z,36.80
2019-01-08T15:12:06.591Z,39.47
2019-01-08T15:15:06.156Z,40.43
2019-01-08T15:17:33.929Z,40.00
2019-01-08T15:20:28.001Z,39.17
2019-01-08T15:23:27.884Z,39.40
2019-01-08T15:26:27.209Z,38.07
2019-01-08T15:32:28.780Z,37.77
2019-01-08T15:38:19.334Z,41.07
2019-01-08T15:44:20.895Z,37.53
2019-01-08T15:53:24.608Z,38.67
2019-01-08T15:59:13.426Z,37.67
2019-01-08T16:02:13.444Z,40.93
2019-01-08T16:05:13.760Z,40.10
2019-01-08T16:11:04.019Z,41.73
2019-01-08T16:14:03.809Z,41.97
2019-01-08T16:17:04.072Z,40.87
2019-01-08T16:19:52.995Z,43.07
2019-01-08T16:22:53.283Z,42.27
2019-01-08T16:25:52.472Z,41.77
2019-01-08T16:28:52.691Z,40.63
2019-01-08T16:31:52.839Z,39.33
2019-01-08T16:34:53.125Z,41.03
2019-01-08T16:37:53.267Z,38.60
2019-01-08T16:40:21.007Z,39.37
2019-01-08T16:43:20.606Z,39.53
2019-01-08T16:45:48.358Z,38.83
2019-01-08T16:48:48.714Z,41.80
2019-01-08T16:51:16.574Z,47.17
2019-01-08T16:54:10.300Z,45.33
2019-01-08T16:56:59.401Z,45.03
2019-01-08T16:59:40.019Z,46.93
2019-01-08T17:02:07.670Z,47.27
2019-01-08T17:04:56.575Z,48.47
2019-01-08T17:07:56.472Z,47.37
2019-01-08T17:10:24.372Z,45.80
2019-01-08T17:13:04.401Z,52.37
2019-01-08T17:18:35.005Z,53.83
2019-01-08T17:21:34.565Z,56.97
2019-01-08T17:24:34.665Z,52.47
2019-01-08T17:27:02.395Z,51.40
2019-01-08T17:32:38.592Z,61.93
2019-01-08T17:35:37.824Z,50.07
2019-01-08T17:38:39.318Z,51.70
2019-01-08T17:41:07.095Z,50.30
2019-01-08T17:44:06.503Z,50.93
2019-01-08T17:47:06.773Z,46.53
2019-01-08T17:53:08.024Z,48.17
2019-01-08T17:55:53.835Z,46.40
2019-01-08T17:58:33.789Z,46.27
2019-01-08T18:01:25.367Z,48.30
2019-01-08T18:13:38.560Z,43.77
2019-01-08T18:16:17.662Z,45.70
2019-01-08T18:25:10.023Z,42.17
2019-01-08T18:27:49.079Z,40.33
2019-01-08T18:33:51.708Z,37.90
2019-01-08T18:36:41.105Z,34.93
2019-01-08T18:39:30.153Z,37.43
2019-01-08T18:45:32.009Z,39.00
2019-01-08T18:48:32.331Z,37.97
2019-01-08T18:51:12.829Z,39.10
2019-01-08T18:54:12.418Z,38.67
2019-01-08T18:57:13.862Z,39.07
2019-01-08T18:59:53.617Z,40.47
2019-01-08T19:02:53.159Z,41.30
2019-01-08T19:05:53.365Z,39.37
2019-01-08T19:08:53.561Z,40.00
2019-01-08T19:15:04.580Z,40.43
2019-01-08T19:17:32.577Z,39.37
2019-01-08T19:20:32.331Z,42.47
2019-01-08T19:23:00.117Z,40.27
2019-01-08T19:25:27.869Z,41.37
2019-01-08T19:28:27.426Z,42.27
2019-01-08T19:31:26.776Z,42.27
2019-01-08T19:34:15.904Z,43.63
2019-01-08T19:36:55.190Z,46.53
2019-01-08T19:39:55.422Z,45.87
2019-01-08T19:42:23.196Z,46.00
2019-01-08T19:45:23.444Z,46.70
2019-01-08T19:47:51.371Z,45.73
2019-01-08T19:50:50.978Z,42.63
2019-01-08T19:53:39.657Z,42.97
2019-01-08T19:56:18.768Z,42.03
2019-01-08T19:58:57.807Z,39.27
2019-01-08T20:01:46.795Z,40.80
2019-01-08T20:04:46.448Z,39.63
2019-01-08T20:07:27.178Z,36.40
2019-01-08T20:10:26.681Z,36.53
2019-01-08T20:18:52.138Z,32.40
2019-01-08T20:21:52.079Z,31.97
2019-01-08T20:24:19.864Z,31.33
2019-01-08T20:27:20.260Z,32.90
2019-01-08T20:29:48.094Z,37.87
2019-01-08T20:32:27.227Z,38.27
2019-01-08T20:34:54.915Z,39.90
2019-01-08T20:37:22.669Z,38.37
2019-01-08T20:40:22.871Z,42.83
2019-01-08T20:43:22.910Z,34.70
2019-01-08T20:46:23.057Z,35.57
2019-01-08T20:49:22.356Z,36.43
2019-01-08T20:51:50.033Z,33.63
2019-01-08T20:54:49.566Z,35.57
2019-01-08T20:57:17.283Z,34.33
2019-01-08T21:00:17.180Z,37.07
2019-01-08T21:03:05.284Z,35.33
2019-01-08T21:09:25.829Z,39.67
2019-01-08T21:15:04.188Z,54.50
2019-01-08T21:17:44.248Z,44.57
2019-01-08T21:23:18.556Z,39.47
2019-01-08T21:28:47.552Z,36.43
2019-01-08T21:31:26.496Z,37.37
2019-01-08T21:34:15.481Z,38.97
2019-01-08T21:37:04.376Z,42.33
2019-01-08T21:40:04.719Z,41.60
2019-01-08T21:43:04.077Z,48.10
2019-01-08T21:46:04.025Z,46.50
2019-01-08T21:48:43.109Z,45.47
2019-01-08T21:51:44.935Z,43.87
2019-01-08T21:54:45.111Z,42.63
2019-01-08T21:57:32.363Z,44.70
2019-01-08T22:00:13.485Z,41.33
2019-01-08T22:03:21.862Z,41.90
2019-01-08T22:06:22.560Z,40.47
2019-01-08T22:09:11.556Z,39.43
2019-01-08T22:11:58.742Z,39.80
2019-01-08T22:14:40.199Z,38.33
2019-01-08T22:17:07.893Z,38.43
2019-01-08T22:19:36.120Z,38.67
2019-01-08T22:22:52.361Z,39.97
2019-01-08T22:26:06.396Z,39.40
2019-01-08T22:28:34.040Z,38.47
2019-01-08T22:34:02.464Z,36.97
2019-01-08T22:37:02.700Z,36.57
2019-01-08T22:39:30.407Z,36.30
2019-01-08T22:42:24.400Z,37.10
2019-01-08T22:45:13.346Z,34.60
2019-01-08T22:47:41.042Z,33.53
2019-01-08T22:50:41.253Z,35.57
2019-01-08T22:53:08.945Z,35.43
2019-01-08T22:58:37.806Z,36.27
2019-01-08T23:01:25.056Z,35.67
2019-01-08T23:04:14.077Z,36.20
2019-01-08T23:07:07.569Z,34.13
2019-01-08T23:10:07.205Z,33.00
2019-01-08T23:13:07.486Z,33.80
2019-01-08T23:18:14.495Z,35.17
2019-01-08T23:23:21.936Z,29.97
2019-01-08T23:25:51.535Z,34.77
2019-01-08T23:28:31.912Z,32.90
2019-01-08T23:31:10.953Z,35.57
2019-01-08T23:34:10.532Z,34.87
2019-01-08T23:37:10.701Z,35.30
2019-01-08T23:39:38.418Z,32.87
2019-01-08T23:42:38.124Z,33.40
2019-01-08T23:45:38.296Z,32.57
2019-01-08T23:48:19.789Z,34.07
2019-01-08T23:53:57.748Z,33.50
2019-01-08T23:56:57.822Z,30.93
2019-01-08T23:59:58.050Z,30.87
